sensor_id;sensor_type;location;lat;lon;timestamp;pressure;altitude;pressure_sealevel;temperature
82780;BMP280;72511;45.120;20.720;2023-08-30T00:08:59;99186.47;;;19.79
82780;BMP280;72511;45.120;20.720;2023-08-30T00:18:59;99158.69;;;19.64
82780;BMP280;72511;45.120;20.720;2023-08-30T00:29:00;99145.75;;;19.59
82780;BMP280;72511;45.120;20.720;2023-08-30T00:39:03;99153.81;;;19.76
82780;BMP280;72511;45.120;20.720;2023-08-30T00:49:04;99153.19;;;19.64
82780;BMP280;72511;45.120;20.720;2023-08-30T00:59:05;99166.09;;;19.69
82780;BMP280;72511;45.120;20.720;2023-08-30T01:09:06;99180.38;;;19.62
82780;BMP280;72511;45.120;20.720;2023-08-30T01:29:28;99202.88;;;19.55
82780;BMP280;72511;45.120;20.720;2023-08-30T01:39:30;99221.88;;;19.83
82780;BMP280;72511;45.120;20.720;2023-08-30T01:49:32;99224.13;;;19.84
82780;BMP280;72511;45.120;20.720;2023-08-30T01:59:33;99230.84;;;19.83
82780;BMP280;72511;45.120;20.720;2023-08-30T02:09:39;99198.16;;;19.85
82780;BMP280;72511;45.120;20.720;2023-08-30T02:19:46;99198.16;;;19.85
82780;BMP280;72511;45.120;20.720;2023-08-30T02:29:52;99179.72;;;19.51
82780;BMP280;72511;45.120;20.720;2023-08-30T02:39:52;99177.97;;;19.53
82780;BMP280;72511;45.120;20.720;2023-08-30T02:49:53;99167.44;;;19.28
82780;BMP280;72511;45.120;20.720;2023-08-30T02:59:53;99174.72;;;19.55
82780;BMP280;72511;45.120;20.720;2023-08-30T03:09:54;99190.41;;;19.60
82780;BMP280;72511;45.120;20.720;2023-08-30T03:19:55;99180.84;;;19.37
82780;BMP280;72511;45.120;20.720;2023-08-30T03:29:55;99162.03;;;19.22
82780;BMP280;72511;45.120;20.720;2023-08-30T03:39:56;99157.03;;;19.21
82780;BMP280;72511;45.120;20.720;2023-08-30T03:49:57;99166.06;;;19.45
82780;BMP280;72511;45.120;20.720;2023-08-30T03:59:58;99168.00;;;19.21
82780;BMP280;72511;45.120;20.720;2023-08-30T04:09:58;99199.53;;;19.38
82780;BMP280;72511;45.120;20.720;2023-08-30T04:19:59;99210.22;;;19.42
82780;BMP280;72511;45.120;20.720;2023-08-30T04:30:02;99191.75;;;19.13
82780;BMP280;72511;45.120;20.720;2023-08-30T04:40:03;99189.75;;;19.48
82780;BMP280;72511;45.120;20.720;2023-08-30T04:50:04;99199.81;;;20.97
82780;BMP280;72511;45.120;20.720;2023-08-30T05:00:07;99211.66;;;23.05
82780;BMP280;72511;45.120;20.720;2023-08-30T05:10:08;99195.44;;;21.83
82780;BMP280;72511;45.120;20.720;2023-08-30T05:20:09;99182.13;;;20.74
82780;BMP280;72511;45.120;20.720;2023-08-30T05:30:11;99185.66;;;21.69
82780;BMP280;72511;45.120;20.720;2023-08-30T05:40:13;99201.44;;;23.34
82780;BMP280;72511;45.120;20.720;2023-08-30T05:50:14;99214.50;;;27.29
82780;BMP280;72511;45.120;20.720;2023-08-30T06:00:16;99211.72;;;26.09
82780;BMP280;72511;45.120;20.720;2023-08-30T06:10:16;99215.44;;;26.12
82780;BMP280;72511;45.120;20.720;2023-08-30T06:20:17;99231.16;;;24.24
82780;BMP280;72511;45.120;20.720;2023-08-30T06:30:18;99243.28;;;24.57
82780;BMP280;72511;45.120;20.720;2023-08-30T06:40:18;99260.50;;;24.85
82780;BMP280;72511;45.120;20.720;2023-08-30T06:50:19;99274.59;;;25.17
82780;BMP280;72511;45.120;20.720;2023-08-30T07:00:19;99269.28;;;25.49
82780;BMP280;72511;45.120;20.720;2023-08-30T07:10:20;99263.38;;;25.38
82780;BMP280;72511;45.120;20.720;2023-08-30T07:20:20;99295.31;;;25.98
82780;BMP280;72511;45.120;20.720;2023-08-30T07:30:21;99299.94;;;25.81
82780;BMP280;72511;45.120;20.720;2023-08-30T07:40:22;99309.78;;;26.44
82780;BMP280;72511;45.120;20.720;2023-08-30T07:50:22;99307.13;;;27.73
82780;BMP280;72511;45.120;20.720;2023-08-30T08:00:23;99316.41;;;26.56
82780;BMP280;72511;45.120;20.720;2023-08-30T08:10:24;99312.88;;;25.78
82780;BMP280;72511;45.120;20.720;2023-08-30T08:20:24;99329.84;;;25.38
82780;BMP280;72511;45.120;20.720;2023-08-30T08:30:25;99339.22;;;25.20
82780;BMP280;72511;45.120;20.720;2023-08-30T08:40:25;99350.03;;;24.95
82780;BMP280;72511;45.120;20.720;2023-08-30T08:50:28;99336.50;;;25.35
82780;BMP280;72511;45.120;20.720;2023-08-30T09:00:30;99332.81;;;25.39
82780;BMP280;72511;45.120;20.720;2023-08-30T09:10:34;99350.09;;;25.18
82780;BMP280;72511;45.120;20.720;2023-08-30T09:20:35;99369.03;;;24.99
82780;BMP280;72511;45.120;20.720;2023-08-30T09:30:35;99369.66;;;24.34
82780;BMP280;72511;45.120;20.720;2023-08-30T09:40:36;99368.47;;;24.57
82780;BMP280;72511;45.120;20.720;2023-08-30T09:50:36;99381.63;;;24.64
82780;BMP280;72511;45.120;20.720;2023-08-30T10:00:39;99370.66;;;24.87
82780;BMP280;72511;45.120;20.720;2023-08-30T10:10:40;99361.19;;;26.52
82780;BMP280;72511;45.120;20.720;2023-08-30T10:20:41;99341.09;;;28.23
82780;BMP280;72511;45.120;20.720;2023-08-30T10:30:42;99333.44;;;28.40
82780;BMP280;72511;45.120;20.720;2023-08-30T10:40:47;99344.09;;;27.83
82780;BMP280;72511;45.120;20.720;2023-08-30T10:50:47;99376.84;;;27.11
82780;BMP280;72511;45.120;20.720;2023-08-30T11:00:50;99364.22;;;26.24
82780;BMP280;72511;45.120;20.720;2023-08-30T11:11:03;99360.91;;;25.96
82780;BMP280;72511;45.120;20.720;2023-08-30T11:21:05;99377.53;;;25.66
82780;BMP280;72511;45.120;20.720;2023-08-30T11:31:06;99381.75;;;25.52
82780;BMP280;72511;45.120;20.720;2023-08-30T11:41:07;99355.81;;;24.34
82780;BMP280;72511;45.120;20.720;2023-08-30T11:51:08;99366.72;;;23.70
82780;BMP280;72511;45.120;20.720;2023-08-30T12:01:09;99362.81;;;23.66
82780;BMP280;72511;45.120;20.720;2023-08-30T12:11:19;99362.13;;;23.73
82780;BMP280;72511;45.120;20.720;2023-08-30T12:21:20;99349.41;;;23.90
82780;BMP280;72511;45.120;20.720;2023-08-30T12:31:20;99330.94;;;24.69
82780;BMP280;72511;45.120;20.720;2023-08-30T12:41:21;99314.25;;;24.97
82780;BMP280;72511;45.120;20.720;2023-08-30T12:51:23;99304.94;;;25.75
82780;BMP280;72511;45.120;20.720;2023-08-30T13:01:23;99299.56;;;25.62
82780;BMP280;72511;45.120;20.720;2023-08-30T13:11:24;99289.25;;;26.47
82780;BMP280;72511;45.120;20.720;2023-08-30T13:21:24;99280.50;;;26.58
82780;BMP280;72511;45.120;20.720;2023-08-30T13:31:25;99294.63;;;27.16
82780;BMP280;72511;45.120;20.720;2023-08-30T13:41:25;99306.94;;;26.59
82780;BMP280;72511;45.120;20.720;2023-08-30T13:51:26;99318.06;;;25.97
82780;BMP280;72511;45.120;20.720;2023-08-30T14:01:27;99333.38;;;25.53
82780;BMP280;72511;45.120;20.720;2023-08-30T14:11:29;99334.00;;;25.09
82780;BMP280;72511;45.120;20.720;2023-08-30T14:21:29;99349.31;;;24.95
82780;BMP280;72511;45.120;20.720;2023-08-30T14:31:30;99376.19;;;24.87
82780;BMP280;72511;45.120;20.720;2023-08-30T14:41:31;99394.06;;;24.86
82780;BMP280;72511;45.120;20.720;2023-08-30T14:51:31;99373.25;;;25.35
82780;BMP280;72511;45.120;20.720;2023-08-30T15:01:32;99362.63;;;25.11
82780;BMP280;72511;45.120;20.720;2023-08-30T15:11:32;99341.56;;;25.01
82780;BMP280;72511;45.120;20.720;2023-08-30T15:21:35;99335.94;;;25.43
82780;BMP280;72511;45.120;20.720;2023-08-30T15:31:35;99329.66;;;26.10
82780;BMP280;72511;45.120;20.720;2023-08-30T15:41:36;99318.50;;;26.33
82780;BMP280;72511;45.120;20.720;2023-08-30T15:51:36;99318.69;;;26.35
82780;BMP280;72511;45.120;20.720;2023-08-30T16:01:38;99298.03;;;26.13
82780;BMP280;72511;45.120;20.720;2023-08-30T16:11:38;99296.78;;;25.84
82780;BMP280;72511;45.120;20.720;2023-08-30T16:21:39;99299.03;;;25.41
82780;BMP280;72511;45.120;20.720;2023-08-30T16:31:39;99316.31;;;25.04
82780;BMP280;72511;45.120;20.720;2023-08-30T16:41:40;99314.13;;;24.67
82780;BMP280;72511;45.120;20.720;2023-08-30T16:51:40;99307.25;;;24.25
82780;BMP280;72511;45.120;20.720;2023-08-30T17:01:41;99329.16;;;23.95
82780;BMP280;72511;45.120;20.720;2023-08-30T17:11:41;99328.75;;;23.51
82780;BMP280;72511;45.120;20.720;2023-08-30T17:21:42;99339.50;;;23.21
82780;BMP280;72511;45.120;20.720;2023-08-30T17:31:43;99371.22;;;23.27
82780;BMP280;72511;45.120;20.720;2023-08-30T17:41:43;99370.22;;;22.65
82780;BMP280;72511;45.120;20.720;2023-08-30T17:51:46;99391.47;;;22.13
82780;BMP280;72511;45.120;20.720;2023-08-30T18:01:46;99396.41;;;22.01
82780;BMP280;72511;45.120;20.720;2023-08-30T18:11:47;99410.56;;;21.74
82780;BMP280;72511;45.120;20.720;2023-08-30T18:21:47;99424.84;;;21.72
82780;BMP280;72511;45.120;20.720;2023-08-30T18:31:48;99438.59;;;21.59
82780;BMP280;72511;45.120;20.720;2023-08-30T18:41:48;99453.75;;;21.47
82780;BMP280;72511;45.120;20.720;2023-08-30T18:51:49;99435.00;;;21.46
82780;BMP280;72511;45.120;20.720;2023-08-30T19:01:50;99458.56;;;21.41
82780;BMP280;72511;45.120;20.720;2023-08-30T19:11:50;99481.88;;;20.93
82780;BMP280;72511;45.120;20.720;2023-08-30T19:21:51;99474.44;;;20.58
82780;BMP280;72511;45.120;20.720;2023-08-30T19:31:52;99494.63;;;20.37
82780;BMP280;72511;45.120;20.720;2023-08-30T19:41:53;99513.72;;;20.53
82780;BMP280;72511;45.120;20.720;2023-08-30T19:51:53;99523.00;;;20.74
82780;BMP280;72511;45.120;20.720;2023-08-30T20:01:54;99532.34;;;20.66
82780;BMP280;72511;45.120;20.720;2023-08-30T20:11:55;99541.34;;;20.96
82780;BMP280;72511;45.120;20.720;2023-08-30T20:21:55;99565.09;;;21.23
82780;BMP280;72511;45.120;20.720;2023-08-30T20:31:56;99603.56;;;20.69
82780;BMP280;72511;45.120;20.720;2023-08-30T20:41:56;99613.63;;;20.61
82780;BMP280;72511;45.120;20.720;2023-08-30T20:51:57;99665.94;;;20.39
82780;BMP280;72511;45.120;20.720;2023-08-30T21:01:58;99690.50;;;20.10
82780;BMP280;72511;45.120;20.720;2023-08-30T21:11:58;99704.31;;;19.71
82780;BMP280;72511;45.120;20.720;2023-08-30T21:21:58;99719.53;;;19.72
82780;BMP280;72511;45.120;20.720;2023-08-30T21:31:59;99705.31;;;19.57
82780;BMP280;72511;45.120;20.720;2023-08-30T21:42:00;99694.09;;;19.39
82780;BMP280;72511;45.120;20.720;2023-08-30T21:52:00;99731.75;;;19.38
82780;BMP280;72511;45.120;20.720;2023-08-30T22:02:01;99710.06;;;19.35
82780;BMP280;72511;45.120;20.720;2023-08-30T22:12:01;99728.03;;;19.41
82780;BMP280;72511;45.120;20.720;2023-08-30T22:22:02;99705.34;;;19.52
82780;BMP280;72511;45.120;20.720;2023-08-30T22:32:03;99710.03;;;19.68
82780;BMP280;72511;45.120;20.720;2023-08-30T22:42:03;99670.13;;;19.78
82780;BMP280;72511;45.120;20.720;2023-08-30T22:52:04;99684.34;;;19.76
82780;BMP280;72511;45.120;20.720;2023-08-30T23:02:05;99668.63;;;19.77
82780;BMP280;72511;45.120;20.720;2023-08-30T23:12:06;99666.13;;;19.62
82780;BMP280;72511;45.120;20.720;2023-08-30T23:22:07;99649.94;;;19.64
82780;BMP280;72511;45.120;20.720;2023-08-30T23:32:07;99644.19;;;19.40
82780;BMP280;72511;45.120;20.720;2023-08-30T23:42:08;99663.41;;;19.18
82780;BMP280;72511;45.120;20.720;2023-08-30T23:52:08;99672.13;;;19.17
